sensor_id;sensor_type;location;lat;lon;timestamp;pressure;altitude;pressure_sealevel;temperature;humidity
77207;BME280;66190;50.708;7.906;2023-07-16T00:00:45;95953.25;;;19.03;70.03
77207;BME280;66190;50.708;7.906;2023-07-16T00:03:11;95968.50;;;18.94;69.94
77207;BME280;66190;50.708;7.906;2023-07-16T00:05:36;95957.28;;;18.86;70.33
77207;BME280;66190;50.708;7.906;2023-07-16T00:08:03;95960.56;;;18.83;70.63
77207;BME280;66190;50.708;7.906;2023-07-16T00:10:29;95981.78;;;18.76;71.52
77207;BME280;66190;50.708;7.906;2023-07-16T00:12:54;95986.94;;;18.72;71.59
77207;BME280;66190;50.708;7.906;2023-07-16T00:15:20;95986.34;;;18.60;71.74
77207;BME280;66190;50.708;7.906;2023-07-16T00:17:45;95990.69;;;18.61;71.70
77207;BME280;66190;50.708;7.906;2023-07-16T00:20:11;95994.19;;;18.52;72.27
77207;BME280;66190;50.708;7.906;2023-07-16T00:22:36;95994.16;;;18.47;72.47
77207;BME280;66190;50.708;7.906;2023-07-16T00:25:05;95989.47;;;18.42;72.73
77207;BME280;66190;50.708;7.906;2023-07-16T00:27:30;95982.06;;;18.38;73.18
77207;BME280;66190;50.708;7.906;2023-07-16T00:29:56;95982.84;;;18.33;73.47
77207;BME280;66190;50.708;7.906;2023-07-16T00:32:21;95979.53;;;18.26;73.96
77207;BME280;66190;50.708;7.906;2023-07-16T00:34:46;95974.28;;;18.14;74.48
77207;BME280;66190;50.708;7.906;2023-07-16T00:37:12;95986.56;;;18.17;74.66
77207;BME280;66190;50.708;7.906;2023-07-16T00:39:37;95993.31;;;18.09;75.05
77207;BME280;66190;50.708;7.906;2023-07-16T00:42:03;96002.88;;;18.12;75.23
77207;BME280;66190;50.708;7.906;2023-07-16T00:44:28;96015.31;;;18.03;75.71
77207;BME280;66190;50.708;7.906;2023-07-16T00:46:54;96008.25;;;18.07;75.32
77207;BME280;66190;50.708;7.906;2023-07-16T00:49:19;96006.84;;;17.99;75.93
77207;BME280;66190;50.708;7.906;2023-07-16T00:51:45;96006.06;;;18.04;75.55
77207;BME280;66190;50.708;7.906;2023-07-16T00:54:11;96008.44;;;17.95;76.04
77207;BME280;66190;50.708;7.906;2023-07-16T00:56:37;96004.09;;;17.94;76.38
77207;BME280;66190;50.708;7.906;2023-07-16T00:59:02;96001.94;;;17.96;76.30
77207;BME280;66190;50.708;7.906;2023-07-16T01:01:28;96002.22;;;18.00;75.87
77207;BME280;66190;50.708;7.906;2023-07-16T01:03:53;96000.00;;;17.97;76.14
77207;BME280;66190;50.708;7.906;2023-07-16T01:06:26;96004.28;;;17.88;76.61
77207;BME280;66190;50.708;7.906;2023-07-16T01:09:16;95999.34;;;17.85;76.69
77207;BME280;66190;50.708;7.906;2023-07-16T01:11:43;96012.03;;;17.74;77.24
77207;BME280;66190;50.708;7.906;2023-07-16T01:14:09;96008.88;;;17.82;76.95
77207;BME280;66190;50.708;7.906;2023-07-16T01:16:35;96015.16;;;17.88;76.78
77207;BME280;66190;50.708;7.906;2023-07-16T01:19:01;96023.84;;;17.85;77.05
77207;BME280;66190;50.708;7.906;2023-07-16T01:21:35;96011.59;;;17.82;77.24
77207;BME280;66190;50.708;7.906;2023-07-16T01:29:49;96027.63;;;17.79;77.46
77207;BME280;66190;50.708;7.906;2023-07-16T01:32:17;96035.31;;;17.87;77.30
77207;BME280;66190;50.708;7.906;2023-07-16T01:34:43;96027.41;;;17.85;77.59
77207;BME280;66190;50.708;7.906;2023-07-16T01:37:09;96030.88;;;17.81;77.34
77207;BME280;66190;50.708;7.906;2023-07-16T01:39:34;96033.09;;;17.84;77.33
77207;BME280;66190;50.708;7.906;2023-07-16T01:42:00;96035.78;;;17.79;77.63
77207;BME280;66190;50.708;7.906;2023-07-16T01:44:26;96038.81;;;17.82;77.36
77207;BME280;66190;50.708;7.906;2023-07-16T01:49:31;96048.22;;;17.70;78.17
77207;BME280;66190;50.708;7.906;2023-07-16T01:51:56;96054.47;;;17.70;78.32
77207;BME280;66190;50.708;7.906;2023-07-16T01:54:21;96066.69;;;17.68;78.58
77207;BME280;66190;50.708;7.906;2023-07-16T01:56:47;96061.66;;;17.55;78.97
77207;BME280;66190;50.708;7.906;2023-07-16T01:59:12;96063.25;;;17.51;79.20
77207;BME280;66190;50.708;7.906;2023-07-16T02:01:38;96069.25;;;17.53;78.98
77207;BME280;66190;50.708;7.906;2023-07-16T02:04:03;96059.75;;;17.55;78.82
77207;BME280;66190;50.708;7.906;2023-07-16T02:06:28;96071.44;;;17.56;78.88
77207;BME280;66190;50.708;7.906;2023-07-16T02:08:54;96070.31;;;17.52;78.88
77207;BME280;66190;50.708;7.906;2023-07-16T02:11:19;96069.34;;;17.63;78.56
77207;BME280;66190;50.708;7.906;2023-07-16T02:13:45;96062.56;;;17.65;78.28
77207;BME280;66190;50.708;7.906;2023-07-16T02:16:10;96069.88;;;17.60;78.93
77207;BME280;66190;50.708;7.906;2023-07-16T02:18:35;96069.50;;;17.51;78.93
77207;BME280;66190;50.708;7.906;2023-07-16T02:21:01;96076.31;;;17.54;78.84
77207;BME280;66190;50.708;7.906;2023-07-16T02:23:27;96073.81;;;17.47;78.99
77207;BME280;66190;50.708;7.906;2023-07-16T02:25:53;96077.09;;;17.49;78.69
77207;BME280;66190;50.708;7.906;2023-07-16T02:28:18;96076.28;;;17.49;78.79
77207;BME280;66190;50.708;7.906;2023-07-16T02:30:43;96080.47;;;17.40;79.09
77207;BME280;66190;50.708;7.906;2023-07-16T02:33:09;96073.19;;;17.24;79.82
77207;BME280;66190;50.708;7.906;2023-07-16T02:35:34;96081.44;;;17.29;79.32
77207;BME280;66190;50.708;7.906;2023-07-16T02:37:59;96086.78;;;17.24;79.63
77207;BME280;66190;50.708;7.906;2023-07-16T02:40:25;96090.34;;;17.24;79.77
77207;BME280;66190;50.708;7.906;2023-07-16T02:42:50;96098.44;;;17.19;79.77
77207;BME280;66190;50.708;7.906;2023-07-16T02:45:15;96099.75;;;17.17;79.75
77207;BME280;66190;50.708;7.906;2023-07-16T02:47:41;96110.03;;;17.10;80.13
77207;BME280;66190;50.708;7.906;2023-07-16T02:50:06;96106.78;;;17.13;80.01
77207;BME280;66190;50.708;7.906;2023-07-16T02:52:32;96109.13;;;17.04;80.46
77207;BME280;66190;50.708;7.906;2023-07-16T02:54:57;96122.75;;;16.87;81.16
77207;BME280;66190;50.708;7.906;2023-07-16T02:57:23;96119.22;;;16.87;81.08
77207;BME280;66190;50.708;7.906;2023-07-16T02:59:48;96120.53;;;16.84;80.87
77207;BME280;66190;50.708;7.906;2023-07-16T03:02:13;96129.25;;;16.86;80.92
77207;BME280;66190;50.708;7.906;2023-07-16T03:04:39;96121.63;;;16.83;80.87
77207;BME280;66190;50.708;7.906;2023-07-16T03:07:05;96126.72;;;16.63;81.95
77207;BME280;66190;50.708;7.906;2023-07-16T03:09:30;96125.75;;;16.69;81.82
77207;BME280;66190;50.708;7.906;2023-07-16T03:11:55;96126.31;;;16.55;82.47
77207;BME280;66190;50.708;7.906;2023-07-16T03:14:21;96131.50;;;16.56;82.50
77207;BME280;66190;50.708;7.906;2023-07-16T03:16:46;96135.38;;;16.60;82.15
77207;BME280;66190;50.708;7.906;2023-07-16T03:19:12;96127.72;;;16.57;82.37
77207;BME280;66190;50.708;7.906;2023-07-16T03:21:37;96140.75;;;16.55;82.29
77207;BME280;66190;50.708;7.906;2023-07-16T03:24:02;96138.41;;;16.47;82.86
77207;BME280;66190;50.708;7.906;2023-07-16T03:26:28;96140.22;;;16.42;83.06
77207;BME280;66190;50.708;7.906;2023-07-16T03:28:53;96139.56;;;16.51;82.43
77207;BME280;66190;50.708;7.906;2023-07-16T03:31:20;96141.25;;;16.41;83.24
77207;BME280;66190;50.708;7.906;2023-07-16T03:33:45;96145.16;;;16.45;83.08
77207;BME280;66190;50.708;7.906;2023-07-16T03:36:11;96144.22;;;16.39;82.90
77207;BME280;66190;50.708;7.906;2023-07-16T03:38:36;96153.50;;;16.27;83.90
77207;BME280;66190;50.708;7.906;2023-07-16T03:41:01;96148.75;;;16.34;83.27
77207;BME280;66190;50.708;7.906;2023-07-16T03:43:27;96158.22;;;16.31;83.37
77207;BME280;66190;50.708;7.906;2023-07-16T03:45:52;96158.13;;;16.26;83.56
77207;BME280;66190;50.708;7.906;2023-07-16T03:48:18;96149.41;;;16.24;83.51
77207;BME280;66190;50.708;7.906;2023-07-16T03:50:43;96152.59;;;16.21;83.51
77207;BME280;66190;50.708;7.906;2023-07-16T03:53:08;96159.53;;;16.29;83.20
77207;BME280;66190;50.708;7.906;2023-07-16T03:55:34;96157.31;;;16.26;82.85
77207;BME280;66190;50.708;7.906;2023-07-16T03:58:00;96155.81;;;16.18;83.55
77207;BME280;66190;50.708;7.906;2023-07-16T04:00:25;96165.44;;;16.26;82.79
77207;BME280;66190;50.708;7.906;2023-07-16T04:02:50;96163.88;;;16.13;83.46
77207;BME280;66190;50.708;7.906;2023-07-16T04:05:16;96169.13;;;16.20;83.11
77207;BME280;66190;50.708;7.906;2023-07-16T04:07:41;96160.91;;;16.15;83.22
77207;BME280;66190;50.708;7.906;2023-07-16T04:10:07;96162.06;;;16.19;83.13
77207;BME280;66190;50.708;7.906;2023-07-16T04:12:32;96171.94;;;16.25;82.94
77207;BME280;66190;50.708;7.906;2023-07-16T04:14:58;96170.47;;;16.17;83.14
77207;BME280;66190;50.708;7.906;2023-07-16T04:17:24;96176.59;;;16.13;83.34
77207;BME280;66190;50.708;7.906;2023-07-16T04:19:50;96180.75;;;16.32;82.36
77207;BME280;66190;50.708;7.906;2023-07-16T04:22:15;96179.19;;;16.19;82.81
77207;BME280;66190;50.708;7.906;2023-07-16T04:24:41;96180.66;;;16.10;83.17
77207;BME280;66190;50.708;7.906;2023-07-16T04:27:06;96182.94;;;16.18;82.59
77207;BME280;66190;50.708;7.906;2023-07-16T04:29:31;96185.56;;;16.13;82.60
77207;BME280;66190;50.708;7.906;2023-07-16T04:31:57;96186.31;;;16.09;82.61
77207;BME280;66190;50.708;7.906;2023-07-16T04:34:22;96192.47;;;16.04;82.90
77207;BME280;66190;50.708;7.906;2023-07-16T04:36:48;96192.00;;;16.07;82.55
77207;BME280;66190;50.708;7.906;2023-07-16T04:39:13;96190.91;;;16.08;82.43
77207;BME280;66190;50.708;7.906;2023-07-16T04:41:38;96193.63;;;16.08;82.52
77207;BME280;66190;50.708;7.906;2023-07-16T04:44:04;96198.13;;;16.03;82.47
77207;BME280;66190;50.708;7.906;2023-07-16T04:46:30;96189.50;;;16.06;82.43
77207;BME280;66190;50.708;7.906;2023-07-16T04:48:55;96195.34;;;16.14;81.34
77207;BME280;66190;50.708;7.906;2023-07-16T04:51:21;96204.91;;;16.17;81.52
77207;BME280;66190;50.708;7.906;2023-07-16T04:53:46;96190.34;;;16.06;81.15
77207;BME280;66190;50.708;7.906;2023-07-16T04:56:15;96197.28;;;16.14;80.25
77207;BME280;66190;50.708;7.906;2023-07-16T04:58:41;96203.16;;;16.11;80.30
77207;BME280;66190;50.708;7.906;2023-07-16T05:01:08;96213.31;;;16.15;80.28
77207;BME280;66190;50.708;7.906;2023-07-16T05:03:34;96209.50;;;16.16;80.06
77207;BME280;66190;50.708;7.906;2023-07-16T05:05:59;96208.56;;;16.22;80.13
77207;BME280;66190;50.708;7.906;2023-07-16T05:08:25;96214.69;;;16.18;80.08
77207;BME280;66190;50.708;7.906;2023-07-16T05:10:51;96208.84;;;16.09;80.42
77207;BME280;66190;50.708;7.906;2023-07-16T05:13:16;96214.69;;;16.18;80.03
77207;BME280;66190;50.708;7.906;2023-07-16T05:15:43;96214.06;;;16.27;79.88
77207;BME280;66190;50.708;7.906;2023-07-16T05:18:09;96214.31;;;16.26;79.76
77207;BME280;66190;50.708;7.906;2023-07-16T05:20:34;96209.59;;;16.21;79.78
77207;BME280;66190;50.708;7.906;2023-07-16T05:22:59;96215.47;;;16.30;78.29
77207;BME280;66190;50.708;7.906;2023-07-16T05:25:25;96224.28;;;16.37;78.04
77207;BME280;66190;50.708;7.906;2023-07-16T05:27:50;96215.94;;;16.27;77.81
77207;BME280;66190;50.708;7.906;2023-07-16T05:30:15;96224.84;;;16.22;77.94
77207;BME280;66190;50.708;7.906;2023-07-16T05:32:41;96234.16;;;16.26;77.46
77207;BME280;66190;50.708;7.906;2023-07-16T05:35:07;96230.69;;;16.31;77.25
77207;BME280;66190;50.708;7.906;2023-07-16T05:37:32;96237.06;;;16.36;77.04
77207;BME280;66190;50.708;7.906;2023-07-16T05:39:58;96239.00;;;16.24;77.43
77207;BME280;66190;50.708;7.906;2023-07-16T05:42:23;96239.81;;;16.25;77.40
77207;BME280;66190;50.708;7.906;2023-07-16T05:44:48;96235.78;;;16.27;76.80
77207;BME280;66190;50.708;7.906;2023-07-16T05:47:14;96239.69;;;16.31;77.33
77207;BME280;66190;50.708;7.906;2023-07-16T05:49:39;96257.59;;;16.32;76.98
77207;BME280;66190;50.708;7.906;2023-07-16T05:52:05;96256.78;;;16.32;77.51
77207;BME280;66190;50.708;7.906;2023-07-16T05:54:30;96252.25;;;16.37;77.58
77207;BME280;66190;50.708;7.906;2023-07-16T05:56:56;96268.13;;;16.29;77.16
77207;BME280;66190;50.708;7.906;2023-07-16T05:59:22;96261.41;;;16.31;76.96
77207;BME280;66190;50.708;7.906;2023-07-16T06:01:47;96271.09;;;16.27;76.31
77207;BME280;66190;50.708;7.906;2023-07-16T06:04:13;96267.59;;;16.43;75.36
77207;BME280;66190;50.708;7.906;2023-07-16T06:06:38;96272.69;;;16.40;74.13
77207;BME280;66190;50.708;7.906;2023-07-16T06:09:04;96275.41;;;16.40;73.98
77207;BME280;66190;50.708;7.906;2023-07-16T06:11:29;96273.50;;;16.40;75.25
77207;BME280;66190;50.708;7.906;2023-07-16T06:13:55;96275.75;;;16.43;75.15
77207;BME280;66190;50.708;7.906;2023-07-16T06:16:20;96279.03;;;16.45;74.58
77207;BME280;66190;50.708;7.906;2023-07-16T06:18:46;96275.88;;;16.48;74.00
77207;BME280;66190;50.708;7.906;2023-07-16T06:21:11;96267.47;;;16.50;72.13
77207;BME280;66190;50.708;7.906;2023-07-16T06:23:37;96279.63;;;16.47;72.69
77207;BME280;66190;50.708;7.906;2023-07-16T06:26:03;96277.00;;;16.52;72.85
77207;BME280;66190;50.708;7.906;2023-07-16T06:28:28;96281.53;;;16.47;71.40
77207;BME280;66190;50.708;7.906;2023-07-16T06:30:53;96278.22;;;16.45;70.65
77207;BME280;66190;50.708;7.906;2023-07-16T06:33:19;96276.22;;;16.52;71.11
77207;BME280;66190;50.708;7.906;2023-07-16T06:35:45;96284.25;;;16.47;70.33
77207;BME280;66190;50.708;7.906;2023-07-16T06:38:12;96277.38;;;16.44;70.81
77207;BME280;66190;50.708;7.906;2023-07-16T06:40:37;96283.44;;;16.46;70.61
77207;BME280;66190;50.708;7.906;2023-07-16T06:43:03;96277.63;;;16.43;71.38
77207;BME280;66190;50.708;7.906;2023-07-16T06:45:28;96290.47;;;16.59;71.87
77207;BME280;66190;50.708;7.906;2023-07-16T06:47:53;96293.94;;;16.71;71.02
77207;BME280;66190;50.708;7.906;2023-07-16T06:50:19;96282.72;;;16.67;69.83
77207;BME280;66190;50.708;7.906;2023-07-16T06:52:44;96286.06;;;16.58;69.36
77207;BME280;66190;50.708;7.906;2023-07-16T06:55:10;96293.66;;;16.56;68.99
77207;BME280;66190;50.708;7.906;2023-07-16T06:57:35;96284.00;;;16.48;68.84
77207;BME280;66190;50.708;7.906;2023-07-16T07:00:00;96285.75;;;16.54;69.00
77207;BME280;66190;50.708;7.906;2023-07-16T07:02:26;96296.22;;;16.62;69.07
77207;BME280;66190;50.708;7.906;2023-07-16T07:04:51;96286.91;;;16.58;67.83
77207;BME280;66190;50.708;7.906;2023-07-16T07:07:17;96290.63;;;16.69;68.10
77207;BME280;66190;50.708;7.906;2023-07-16T07:09:42;96281.47;;;16.58;66.84
77207;BME280;66190;50.708;7.906;2023-07-16T07:12:07;96280.84;;;16.68;66.83
77207;BME280;66190;50.708;7.906;2023-07-16T07:14:33;96282.31;;;16.75;66.96
77207;BME280;66190;50.708;7.906;2023-07-16T07:16:58;96278.72;;;16.86;66.43
77207;BME280;66190;50.708;7.906;2023-07-16T07:19:24;96288.84;;;16.74;65.79
77207;BME280;66190;50.708;7.906;2023-07-16T07:21:49;96285.28;;;16.74;64.36
77207;BME280;66190;50.708;7.906;2023-07-16T07:24:14;96292.34;;;16.75;64.98
77207;BME280;66190;50.708;7.906;2023-07-16T07:26:40;96291.41;;;16.81;64.09
77207;BME280;66190;50.708;7.906;2023-07-16T07:29:05;96282.50;;;16.85;64.00
77207;BME280;66190;50.708;7.906;2023-07-16T07:31:31;96286.63;;;16.88;63.64
77207;BME280;66190;50.708;7.906;2023-07-16T07:33:56;96291.97;;;16.99;64.50
77207;BME280;66190;50.708;7.906;2023-07-16T07:36:23;96303.66;;;17.17;64.65
77207;BME280;66190;50.708;7.906;2023-07-16T07:38:48;96298.09;;;17.23;63.53
77207;BME280;66190;50.708;7.906;2023-07-16T07:41:13;96288.25;;;17.22;62.40
77207;BME280;66190;50.708;7.906;2023-07-16T07:43:39;96294.03;;;17.26;62.95
77207;BME280;66190;50.708;7.906;2023-07-16T07:46:04;96299.16;;;17.39;62.50
77207;BME280;66190;50.708;7.906;2023-07-16T07:48:31;96292.00;;;17.49;62.80
77207;BME280;66190;50.708;7.906;2023-07-16T07:50:56;96303.94;;;17.48;61.21
77207;BME280;66190;50.708;7.906;2023-07-16T07:53:22;96301.94;;;17.27;61.81
77207;BME280;66190;50.708;7.906;2023-07-16T07:55:47;96303.19;;;17.20;61.06
77207;BME280;66190;50.708;7.906;2023-07-16T07:58:12;96290.19;;;17.22;61.37
77207;BME280;66190;50.708;7.906;2023-07-16T08:00:38;96288.66;;;17.31;61.76
77207;BME280;66190;50.708;7.906;2023-07-16T08:03:04;96299.31;;;17.49;61.98
77207;BME280;66190;50.708;7.906;2023-07-16T08:05:29;96291.97;;;17.33;60.34
77207;BME280;66190;50.708;7.906;2023-07-16T08:07:59;96300.84;;;17.45;61.37
77207;BME280;66190;50.708;7.906;2023-07-16T08:10:24;96318.13;;;17.50;61.23
77207;BME280;66190;50.708;7.906;2023-07-16T08:12:49;96313.56;;;17.56;60.97
77207;BME280;66190;50.708;7.906;2023-07-16T08:15:15;96311.94;;;17.55;59.22
77207;BME280;66190;50.708;7.906;2023-07-16T08:17:41;96307.88;;;17.57;59.50
77207;BME280;66190;50.708;7.906;2023-07-16T08:20:08;96309.78;;;17.57;58.24
77207;BME280;66190;50.708;7.906;2023-07-16T08:22:34;96309.69;;;17.68;58.90
77207;BME280;66190;50.708;7.906;2023-07-16T08:24:59;96311.84;;;17.66;59.42
77207;BME280;66190;50.708;7.906;2023-07-16T08:27:24;96311.31;;;17.69;58.71
77207;BME280;66190;50.708;7.906;2023-07-16T08:29:50;96314.25;;;17.84;59.46
77207;BME280;66190;50.708;7.906;2023-07-16T08:32:15;96310.03;;;17.93;57.71
77207;BME280;66190;50.708;7.906;2023-07-16T08:34:41;96316.44;;;18.04;56.98
77207;BME280;66190;50.708;7.906;2023-07-16T08:37:06;96317.84;;;18.06;55.97
77207;BME280;66190;50.708;7.906;2023-07-16T08:39:31;96324.84;;;18.02;55.77
77207;BME280;66190;50.708;7.906;2023-07-16T08:41:57;96319.91;;;17.99;55.91
77207;BME280;66190;50.708;7.906;2023-07-16T08:44:23;96325.56;;;17.93;56.77
77207;BME280;66190;50.708;7.906;2023-07-16T08:46:50;96324.47;;;17.94;57.29
77207;BME280;66190;50.708;7.906;2023-07-16T08:49:18;96329.66;;;17.95;56.98
77207;BME280;66190;50.708;7.906;2023-07-16T08:51:47;96334.66;;;18.03;57.51
77207;BME280;66190;50.708;7.906;2023-07-16T08:54:12;96324.91;;;18.07;55.91
77207;BME280;66190;50.708;7.906;2023-07-16T08:56:41;96333.28;;;18.01;55.39
77207;BME280;66190;50.708;7.906;2023-07-16T08:59:07;96327.44;;;18.14;55.96
77207;BME280;66190;50.708;7.906;2023-07-16T09:01:33;96332.75;;;18.04;54.59
77207;BME280;66190;50.708;7.906;2023-07-16T09:03:58;96353.41;;;18.00;54.90
77207;BME280;66190;50.708;7.906;2023-07-16T09:06:24;96343.53;;;17.94;54.32
77207;BME280;66190;50.708;7.906;2023-07-16T09:08:50;96350.44;;;18.01;54.33
77207;BME280;66190;50.708;7.906;2023-07-16T09:11:15;96352.84;;;18.20;55.25
77207;BME280;66190;50.708;7.906;2023-07-16T09:13:46;96348.09;;;18.32;53.95
77207;BME280;66190;50.708;7.906;2023-07-16T09:16:12;96343.19;;;18.50;54.76
77207;BME280;66190;50.708;7.906;2023-07-16T09:18:40;96332.34;;;18.55;52.28
77207;BME280;66190;50.708;7.906;2023-07-16T09:21:06;96352.00;;;18.57;52.68
77207;BME280;66190;50.708;7.906;2023-07-16T09:23:32;96348.56;;;18.45;52.28
77207;BME280;66190;50.708;7.906;2023-07-16T09:25:58;96356.38;;;18.58;54.19
77207;BME280;66190;50.708;7.906;2023-07-16T09:28:23;96358.88;;;18.65;53.19
77207;BME280;66190;50.708;7.906;2023-07-16T09:30:50;96362.50;;;18.70;53.64
77207;BME280;66190;50.708;7.906;2023-07-16T09:33:18;96355.91;;;18.66;52.25
77207;BME280;66190;50.708;7.906;2023-07-16T09:35:50;96360.09;;;18.52;52.05
77207;BME280;66190;50.708;7.906;2023-07-16T09:38:16;96354.97;;;18.34;51.45
77207;BME280;66190;50.708;7.906;2023-07-16T09:40:42;96361.47;;;18.33;51.53
77207;BME280;66190;50.708;7.906;2023-07-16T09:43:13;96355.94;;;18.45;51.81
77207;BME280;66190;50.708;7.906;2023-07-16T09:45:38;96360.09;;;18.52;51.58
77207;BME280;66190;50.708;7.906;2023-07-16T09:48:04;96357.06;;;18.49;51.67
77207;BME280;66190;50.708;7.906;2023-07-16T09:50:32;96360.25;;;18.62;51.03
77207;BME280;66190;50.708;7.906;2023-07-16T09:52:58;96358.75;;;18.76;51.97
77207;BME280;66190;50.708;7.906;2023-07-16T09:55:24;96363.44;;;18.81;48.90
77207;BME280;66190;50.708;7.906;2023-07-16T09:57:52;96368.09;;;18.85;49.54
77207;BME280;66190;50.708;7.906;2023-07-16T10:00:19;96364.38;;;18.91;49.79
77207;BME280;66190;50.708;7.906;2023-07-16T10:02:46;96359.59;;;19.03;48.95
77207;BME280;66190;50.708;7.906;2023-07-16T10:05:23;96347.38;;;19.11;49.03
77207;BME280;66190;50.708;7.906;2023-07-16T10:07:58;96359.22;;;19.21;49.58
77207;BME280;66190;50.708;7.906;2023-07-16T10:10:41;96368.50;;;19.25;49.19
77207;BME280;66190;50.708;7.906;2023-07-16T10:13:07;96363.03;;;19.47;48.57
77207;BME280;66190;50.708;7.906;2023-07-16T10:15:33;96359.38;;;19.37;47.81
77207;BME280;66190;50.708;7.906;2023-07-16T10:17:59;96362.47;;;19.23;47.68
77207;BME280;66190;50.708;7.906;2023-07-16T10:20:31;96364.19;;;19.30;46.33
77207;BME280;66190;50.708;7.906;2023-07-16T10:22:58;96362.06;;;19.32;47.40
77207;BME280;66190;50.708;7.906;2023-07-16T10:25:26;96362.56;;;19.29;46.45
77207;BME280;66190;50.708;7.906;2023-07-16T10:27:53;96371.72;;;19.17;46.14
77207;BME280;66190;50.708;7.906;2023-07-16T10:30:20;96367.44;;;19.27;46.81
77207;BME280;66190;50.708;7.906;2023-07-16T10:32:46;96365.25;;;19.55;47.47
77207;BME280;66190;50.708;7.906;2023-07-16T10:35:12;96374.34;;;19.66;45.86
77207;BME280;66190;50.708;7.906;2023-07-16T10:37:39;96366.50;;;19.74;47.45
77207;BME280;66190;50.708;7.906;2023-07-16T10:40:10;96365.50;;;19.85;45.30
77207;BME280;66190;50.708;7.906;2023-07-16T10:42:35;96374.88;;;19.63;45.17
77207;BME280;66190;50.708;7.906;2023-07-16T10:45:03;96378.19;;;19.65;46.44
77207;BME280;66190;50.708;7.906;2023-07-16T10:47:33;96369.50;;;19.73;46.52
77207;BME280;66190;50.708;7.906;2023-07-16T10:49:59;96369.50;;;19.73;46.51
77207;BME280;66190;50.708;7.906;2023-07-16T10:52:26;96364.94;;;19.83;45.13
77207;BME280;66190;50.708;7.906;2023-07-16T10:54:52;96367.13;;;19.86;45.06
77207;BME280;66190;50.708;7.906;2023-07-16T10:57:23;96374.50;;;19.86;46.03
77207;BME280;66190;50.708;7.906;2023-07-16T10:59:50;96376.47;;;19.95;46.27
77207;BME280;66190;50.708;7.906;2023-07-16T11:02:16;96374.28;;;19.92;46.93
77207;BME280;66190;50.708;7.906;2023-07-16T11:04:44;96369.81;;;20.18;47.52
77207;BME280;66190;50.708;7.906;2023-07-16T11:07:11;96366.66;;;20.36;47.40
77207;BME280;66190;50.708;7.906;2023-07-16T11:09:48;96355.16;;;20.39;46.88
77207;BME280;66190;50.708;7.906;2023-07-16T11:12:18;96367.69;;;20.30;45.63
77207;BME280;66190;50.708;7.906;2023-07-16T11:14:48;96366.97;;;20.50;47.00
77207;BME280;66190;50.708;7.906;2023-07-16T11:17:14;96364.41;;;20.33;44.91
77207;BME280;66190;50.708;7.906;2023-07-16T11:19:41;96381.09;;;20.37;46.15
77207;BME280;66190;50.708;7.906;2023-07-16T11:22:10;96374.72;;;20.16;44.70
77207;BME280;66190;50.708;7.906;2023-07-16T11:24:44;96382.91;;;20.16;45.99
77207;BME280;66190;50.708;7.906;2023-07-16T11:29:46;96374.19;;;20.76;45.00
77207;BME280;66190;50.708;7.906;2023-07-16T11:32:13;96370.59;;;20.65;44.45
77207;BME280;66190;50.708;7.906;2023-07-16T11:34:51;96375.25;;;20.70;44.52
77207;BME280;66190;50.708;7.906;2023-07-16T11:37:17;96368.69;;;20.66;42.87
77207;BME280;66190;50.708;7.906;2023-07-16T11:39:43;96371.50;;;20.96;44.17
77207;BME280;66190;50.708;7.906;2023-07-16T11:42:09;96360.88;;;21.04;43.94
77207;BME280;66190;50.708;7.906;2023-07-16T11:44:34;96381.41;;;21.12;44.97
77207;BME280;66190;50.708;7.906;2023-07-16T11:47:01;96375.66;;;20.98;43.81
77207;BME280;66190;50.708;7.906;2023-07-16T11:49:26;96373.47;;;21.05;44.14
77207;BME280;66190;50.708;7.906;2023-07-16T11:51:52;96371.88;;;21.24;43.59
77207;BME280;66190;50.708;7.906;2023-07-16T11:54:17;96363.66;;;21.29;43.13
77207;BME280;66190;50.708;7.906;2023-07-16T11:56:43;96366.97;;;21.52;43.36
77207;BME280;66190;50.708;7.906;2023-07-16T11:59:08;96375.72;;;21.38;42.33
77207;BME280;66190;50.708;7.906;2023-07-16T12:01:33;96362.31;;;21.57;42.51
77207;BME280;66190;50.708;7.906;2023-07-16T12:03:59;96374.91;;;21.58;42.56
77207;BME280;66190;50.708;7.906;2023-07-16T12:06:24;96364.50;;;21.35;42.50
77207;BME280;66190;50.708;7.906;2023-07-16T12:08:50;96369.69;;;21.52;42.87
77207;BME280;66190;50.708;7.906;2023-07-16T12:11:15;96374.34;;;21.51;42.04
77207;BME280;66190;50.708;7.906;2023-07-16T12:13:40;96368.34;;;21.49;42.04
77207;BME280;66190;50.708;7.906;2023-07-16T12:16:06;96369.16;;;21.70;41.09
77207;BME280;66190;50.708;7.906;2023-07-16T12:18:32;96366.94;;;21.62;40.60
77207;BME280;66190;50.708;7.906;2023-07-16T12:20:57;96367.00;;;21.82;40.71
77207;BME280;66190;50.708;7.906;2023-07-16T12:23:23;96377.63;;;22.13;39.87
77207;BME280;66190;50.708;7.906;2023-07-16T12:25:49;96369.16;;;22.10;39.15
77207;BME280;66190;50.708;7.906;2023-07-16T12:28:15;96366.63;;;22.28;40.91
77207;BME280;66190;50.708;7.906;2023-07-16T12:30:40;96366.13;;;21.96;39.35
77207;BME280;66190;50.708;7.906;2023-07-16T12:33:06;96360.94;;;21.95;39.52
77207;BME280;66190;50.708;7.906;2023-07-16T12:35:31;96367.50;;;21.74;40.00
77207;BME280;66190;50.708;7.906;2023-07-16T12:37:57;96365.88;;;21.63;39.73
77207;BME280;66190;50.708;7.906;2023-07-16T12:40:24;96366.72;;;21.63;39.68
77207;BME280;66190;50.708;7.906;2023-07-16T12:42:49;96375.72;;;21.64;39.87
77207;BME280;66190;50.708;7.906;2023-07-16T12:45:15;96362.31;;;21.52;39.89
77207;BME280;66190;50.708;7.906;2023-07-16T12:47:40;96374.63;;;21.70;40.13
77207;BME280;66190;50.708;7.906;2023-07-16T12:50:07;96368.59;;;21.68;39.64
77207;BME280;66190;50.708;7.906;2023-07-16T12:52:33;96379.56;;;21.93;40.29
77207;BME280;66190;50.708;7.906;2023-07-16T12:54:58;96388.28;;;22.30;41.36
77207;BME280;66190;50.708;7.906;2023-07-16T12:57:23;96380.31;;;22.38;40.51
77207;BME280;66190;50.708;7.906;2023-07-16T12:59:49;96386.38;;;22.30;40.45
77207;BME280;66190;50.708;7.906;2023-07-16T13:02:14;96384.75;;;22.14;40.44
77207;BME280;66190;50.708;7.906;2023-07-16T13:04:39;96375.41;;;22.25;40.40